METAR Data

Data at: 1005 UTC 19 Feb 2020

LOWL 190950Z 28013KT 9999 FEW036 SCT060 BKN080 08/M00 Q1019 NOSIG

TAF LOWL 190515Z 1906/2006 25004KT 9999 BKN070 TX07/1913Z TN01/2006Z
  BECMG 1910/1912 27010KT -RA
  TEMPO 1911/1917 26015G25KT SHRA BKN020
  BECMG 1920/1922 24004KT NSW SCT060